»·PEaware :: SWA3154 KSFO-KEUG

SWA3154 :: KSFO-KEUG

FLIGHT INFORMATION

Flight Status: Arrived
Operator:
Southwest Airlines
More flights by this operator :: More flights under this callsign
Pilot: Anonymous 17611 (17611)
Aircraft: BOEING 737-800
(B738)
More flights by this aircraft type
Origin: KSFO San Francisco Intl
United States
Destination: KEUG Mahlon Sweet
United States
More flights between these airports :: More routes between these airports
Route: TRUKN2 GRTFL EUG
File this flight plan on PilotEdge
Remarks:
Altitude:
(Current/Filed)
34,000ft
Speed:
(Current/Filed)
449kts
Departed: 15-May-18 03:02 PM
Arrived: 15-May-18 04:10 PM
Distance/Time
Traveled:
392nm/1:07
Distance/Time
To Go:
Arrived

Flight Plot

Page will automatically refresh every two minutes.

Flight plan parsing failed; only flown route is shown


Map Options




Map Legend


Flown Route
Filed Route
Departure Airport
Arrival Airport
Navaid (VOR, NDB)
Fix

Horizontal Profiles

Position Reports

Time Latitude Longitude Heading Altitude Ground
Speed
15-May-18 14:32 37.611681 -122.385972 34 31ft 0kts
15-May-18 14:33 37.611681 -122.385972 34 31ft 0kts
15-May-18 14:34 37.611681 -122.385972 34 31ft 0kts
15-May-18 14:35 37.611681 -122.385972 34 31ft 0kts
15-May-18 14:36 37.611681 -122.385972 34 31ft 0kts
15-May-18 14:37 37.611681 -122.385972 34 31ft 0kts
15-May-18 14:38 37.611681 -122.385972 34 31ft 0kts
15-May-18 14:39 37.611681 -122.385972 34 31ft 0kts
15-May-18 14:40 37.611681 -122.385972 34 31ft 0kts
15-May-18 14:41 37.611681 -122.385972 34 31ft 0kts
15-May-18 14:42 37.611681 -122.385972 34 31ft 0kts
15-May-18 14:43 37.611681 -122.385972 34 31ft 0kts
15-May-18 14:44 37.611681 -122.385972 34 31ft 0kts
15-May-18 14:45 37.611681 -122.385972 34 31ft 0kts
15-May-18 14:46 37.611681 -122.385972 34 31ft 0kts
15-May-18 14:47 37.611681 -122.385972 34 31ft 0kts
15-May-18 14:48 37.611681 -122.385972 34 31ft 0kts
15-May-18 14:49 37.611681 -122.385972 34 31ft 0kts
15-May-18 14:50 37.611681 -122.385972 34 31ft 0kts
15-May-18 14:51 37.611681 -122.385972 34 31ft 0kts
15-May-18 14:52 37.611681 -122.385972 34 31ft 0kts
15-May-18 14:53 37.611681 -122.385973 34 31ft 0kts
15-May-18 14:54 37.611681 -122.385972 34 31ft 0kts
15-May-18 14:55 37.611622 -122.386024 35 31ft 2kts
15-May-18 14:56 37.611479 -122.386689 114 31ft 2kts
15-May-18 14:57 37.611583 -122.386924 116 30ft 0kts
15-May-18 14:58 37.611577 -122.386910 118 30ft 0kts
15-May-18 14:59 37.611144 -122.385937 118 31ft 11kts
15-May-18 15:00 37.609340 -122.383323 118 30ft 0kts
15-May-18 15:01 37.609330 -122.383299 118 30ft 1kts
15-May-18 15:02 37.616575 -122.377204 28 25ft 126kts
15-May-18 15:03 37.658767 -122.336659 54 1843ft 231kts
15-May-18 15:04 37.692508 -122.261846 59 4038ft 280kts
15-May-18 15:05 37.737642 -122.214297 8 6406ft 287kts
15-May-18 15:06 37.818340 -122.215070 358 9197ft 300kts
15-May-18 15:07 37.904712 -122.218038 0 11413ft 331kts
15-May-18 15:08 38.013922 -122.221330 0 14670ft 350kts
15-May-18 15:09 38.112507 -122.224132 0 17494ft 368kts
15-May-18 15:10 38.215466 -122.227017 359 20043ft 385kts
15-May-18 15:11 38.324577 -122.230042 359 22399ft 401kts
15-May-18 15:12 38.437249 -122.242903 351 24545ft 416kts
15-May-18 15:13 38.553270 -122.262829 351 26536ft 430kts
15-May-18 15:14 38.673007 -122.283384 351 28390ft 441kts
15-May-18 15:15 38.774672 -122.300820 350 29910ft 447kts
15-May-18 15:16 38.893515 -122.321195 350 31928ft 442kts
15-May-18 15:17 39.011308 -122.341432 350 34044ft 427kts
15-May-18 15:18 39.130976 -122.362078 350 34067ft 452kts
15-May-18 15:19 39.255383 -122.383403 350 34053ft 452kts
15-May-18 15:20 39.379455 -122.404699 350 34015ft 452kts
15-May-18 15:21 39.503891 -122.426068 350 34023ft 452kts
15-May-18 15:22 39.628293 -122.447479 350 34004ft 452kts
15-May-18 15:23 39.752607 -122.468850 350 34000ft 452kts
15-May-18 15:24 39.877069 -122.490265 350 33997ft 452kts
15-May-18 15:25 40.001452 -122.511649 350 34000ft 453kts
15-May-18 15:26 40.123495 -122.532651 350 34002ft 453kts
15-May-18 15:27 40.248007 -122.554087 351 33997ft 452kts
15-May-18 15:28 40.372083 -122.575448 350 33970ft 453kts
15-May-18 15:29 40.496539 -122.596880 350 33975ft 453kts
15-May-18 15:30 40.621310 -122.618360 350 33972ft 453kts
15-May-18 15:31 40.745723 -122.639785 351 33967ft 453kts
15-May-18 15:32 40.869807 -122.661140 350 33971ft 452kts
15-May-18 15:33 40.994011 -122.682520 350 33974ft 443kts
15-May-18 15:34 41.107797 -122.702332 356 33953ft 430kts
15-May-18 15:35 41.227757 -122.722887 357 33960ft 440kts
15-May-18 15:36 41.343989 -122.742832 357 33957ft 440kts
15-May-18 15:37 41.460181 -122.762960 357 33974ft 439kts
15-May-18 15:38 41.580691 -122.783705 356 33955ft 440kts
15-May-18 15:39 41.701425 -122.804517 357 33955ft 439kts
15-May-18 15:40 41.822136 -122.825292 357 33958ft 438kts
15-May-18 15:41 41.943077 -122.846212 357 33127ft 439kts
15-May-18 15:42 42.064204 -122.866917 357 31738ft 442kts
15-May-18 15:43 42.145286 -122.881041 356 30831ft 441kts
15-May-18 15:44 42.265308 -122.901659 355 29492ft 447kts
15-May-18 15:45 42.389308 -122.923102 356 28127ft 452kts
15-May-18 15:46 42.514576 -122.944668 355 26735ft 458kts
15-May-18 15:47 42.641044 -122.966512 355 25367ft 462kts
15-May-18 15:48 42.765497 -122.987935 355 23960ft 445kts
15-May-18 15:49 42.888130 -123.009198 355 23969ft 446kts
15-May-18 15:50 43.006699 -123.029690 354 21442ft 394kts
15-May-18 15:51 43.112165 -123.047894 354 18862ft 379kts
15-May-18 15:52 43.213543 -123.065390 353 16277ft 364kts
15-May-18 15:53 43.314246 -123.082754 353 13722ft 367kts
15-May-18 15:54 43.406772 -123.098757 353 11042ft 308kts
15-May-18 15:55 43.487420 -123.112730 353 10003ft 287kts
15-May-18 15:56 43.566545 -123.126390 353 10002ft 286kts
15-May-18 15:57 43.638869 -123.138884 353 10005ft 286kts
15-May-18 15:58 43.714419 -123.151956 353 8831ft 284kts
15-May-18 15:59 43.792751 -123.163253 355 6479ft 296kts
15-May-18 16:00 43.871115 -123.178164 337 4080ft 267kts
15-May-18 16:01 43.936495 -123.218808 336 4006ft 257kts
15-May-18 16:02 44.001730 -123.259662 336 4008ft 257kts
15-May-18 16:03 44.066902 -123.300362 336 4008ft 257kts
15-May-18 16:04 44.129668 -123.330576 358 4003ft 224kts
15-May-18 16:05 44.182834 -123.331655 359 3634ft 204kts
15-May-18 16:06 44.224594 -123.283957 72 2502ft 206kts
15-May-18 16:07 44.202261 -123.227441 164 1678ft 159kts
15-May-18 16:08 44.159281 -123.219427 180 868ft 162kts
15-May-18 16:09 44.120857 -123.218953 179 368ft 60kts
15-May-18 16:10 44.116677 -123.217532 33 370ft 0kts
15-May-18 16:11 44.119454 -123.214373 57 370ft 6kts

Navigation Log

Ident Type
Flight plan parsing failed, navigation log unavailable